sensor_id;sensor_type;location;lat;lon;timestamp;P1;durP1;ratioP1;P2;durP2;ratioP2
18875;SDS011;9570;50.854;13.778;2022-11-15T00:01:47;17.97;;;12.60;;
18875;SDS011;9570;50.854;13.778;2022-11-15T00:04:12;21.53;;;12.97;;
18875;SDS011;9570;50.854;13.778;2022-11-15T00:06:38;17.60;;;11.90;;
18875;SDS011;9570;50.854;13.778;2022-11-15T00:09:03;18.40;;;12.83;;
18875;SDS011;9570;50.854;13.778;2022-11-15T00:11:29;16.63;;;12.00;;
18875;SDS011;9570;50.854;13.778;2022-11-15T00:13:55;21.60;;;13.73;;
18875;SDS011;9570;50.854;13.778;2022-11-15T00:16:22;19.77;;;12.90;;
18875;SDS011;9570;50.854;13.778;2022-11-15T00:18:48;16.17;;;12.13;;
18875;SDS011;9570;50.854;13.778;2022-11-15T00:21:14;20.60;;;13.07;;
18875;SDS011;9570;50.854;13.778;2022-11-15T00:23:40;18.77;;;14.40;;
18875;SDS011;9570;50.854;13.778;2022-11-15T00:26:06;21.00;;;12.83;;
18875;SDS011;9570;50.854;13.778;2022-11-15T00:28:31;18.73;;;13.23;;
18875;SDS011;9570;50.854;13.778;2022-11-15T00:31:04;20.47;;;13.53;;
18875;SDS011;9570;50.854;13.778;2022-11-15T00:33:31;18.67;;;12.90;;
18875;SDS011;9570;50.854;13.778;2022-11-15T00:36:04;21.57;;;12.00;;
18875;SDS011;9570;50.854;13.778;2022-11-15T00:38:31;16.00;;;11.10;;
18875;SDS011;9570;50.854;13.778;2022-11-15T00:40:58;19.13;;;11.93;;
18875;SDS011;9570;50.854;13.778;2022-11-15T00:43:24;16.17;;;12.17;;
18875;SDS011;9570;50.854;13.778;2022-11-15T00:45:50;16.83;;;11.43;;
18875;SDS011;9570;50.854;13.778;2022-11-15T00:48:15;15.57;;;11.67;;
18875;SDS011;9570;50.854;13.778;2022-11-15T00:50:41;17.43;;;12.03;;
18875;SDS011;9570;50.854;13.778;2022-11-15T00:53:06;18.17;;;12.17;;
18875;SDS011;9570;50.854;13.778;2022-11-15T00:55:32;16.90;;;12.20;;
18875;SDS011;9570;50.854;13.778;2022-11-15T00:57:57;19.77;;;12.60;;
18875;SDS011;9570;50.854;13.778;2022-11-15T01:00:22;20.57;;;13.40;;
18875;SDS011;9570;50.854;13.778;2022-11-15T01:02:48;20.67;;;13.63;;
18875;SDS011;9570;50.854;13.778;2022-11-15T01:05:13;19.47;;;13.30;;
18875;SDS011;9570;50.854;13.778;2022-11-15T01:07:39;18.23;;;13.53;;
18875;SDS011;9570;50.854;13.778;2022-11-15T01:10:05;18.97;;;12.60;;
18875;SDS011;9570;50.854;13.778;2022-11-15T01:12:31;21.87;;;12.13;;
18875;SDS011;9570;50.854;13.778;2022-11-15T01:14:57;18.03;;;11.83;;
18875;SDS011;9570;50.854;13.778;2022-11-15T01:17:22;20.60;;;13.40;;
18875;SDS011;9570;50.854;13.778;2022-11-15T01:19:48;18.37;;;12.90;;
18875;SDS011;9570;50.854;13.778;2022-11-15T01:22:13;17.00;;;12.30;;
18875;SDS011;9570;50.854;13.778;2022-11-15T01:24:39;17.90;;;11.67;;
18875;SDS011;9570;50.854;13.778;2022-11-15T01:27:04;17.83;;;12.43;;
18875;SDS011;9570;50.854;13.778;2022-11-15T01:29:30;18.50;;;12.37;;
18875;SDS011;9570;50.854;13.778;2022-11-15T01:31:56;18.03;;;11.60;;
18875;SDS011;9570;50.854;13.778;2022-11-15T01:34:21;16.53;;;11.67;;
18875;SDS011;9570;50.854;13.778;2022-11-15T01:36:47;16.23;;;11.37;;
18875;SDS011;9570;50.854;13.778;2022-11-15T01:39:12;19.47;;;12.53;;
18875;SDS011;9570;50.854;13.778;2022-11-15T01:41:38;18.63;;;12.47;;
18875;SDS011;9570;50.854;13.778;2022-11-15T01:47:13;17.23;;;11.80;;
18875;SDS011;9570;50.854;13.778;2022-11-15T01:49:45;17.33;;;11.63;;
18875;SDS011;9570;50.854;13.778;2022-11-15T01:52:19;20.27;;;12.87;;
18875;SDS011;9570;50.854;13.778;2022-11-15T01:54:47;19.07;;;12.33;;
18875;SDS011;9570;50.854;13.778;2022-11-15T01:57:16;18.17;;;11.30;;
18875;SDS011;9570;50.854;13.778;2022-11-15T01:59:43;17.40;;;11.73;;
18875;SDS011;9570;50.854;13.778;2022-11-15T02:02:10;19.07;;;12.40;;
18875;SDS011;9570;50.854;13.778;2022-11-15T02:04:43;17.17;;;11.53;;
18875;SDS011;9570;50.854;13.778;2022-11-15T02:07:11;18.63;;;12.80;;
18875;SDS011;9570;50.854;13.778;2022-11-15T02:09:39;19.07;;;12.53;;
18875;SDS011;9570;50.854;13.778;2022-11-15T02:12:05;19.90;;;13.43;;
18875;SDS011;9570;50.854;13.778;2022-11-15T02:14:33;17.57;;;12.13;;
18875;SDS011;9570;50.854;13.778;2022-11-15T02:23:04;22.57;;;15.03;;
18875;SDS011;9570;50.854;13.778;2022-11-15T02:31:28;23.60;;;15.00;;
18875;SDS011;9570;50.854;13.778;2022-11-15T02:37:09;19.93;;;13.63;;
18875;SDS011;9570;50.854;13.778;2022-11-15T02:39:52;21.40;;;13.70;;
18875;SDS011;9570;50.854;13.778;2022-11-15T02:42:31;21.27;;;14.37;;
18875;SDS011;9570;50.854;13.778;2022-11-15T02:45:23;21.33;;;14.30;;
18875;SDS011;9570;50.854;13.778;2022-11-15T02:47:54;21.83;;;14.73;;
18875;SDS011;9570;50.854;13.778;2022-11-15T02:50:24;20.30;;;13.93;;
18875;SDS011;9570;50.854;13.778;2022-11-15T02:52:52;23.97;;;14.20;;
18875;SDS011;9570;50.854;13.778;2022-11-15T02:55:27;24.47;;;15.47;;
18875;SDS011;9570;50.854;13.778;2022-11-15T02:58:01;24.23;;;14.50;;
18875;SDS011;9570;50.854;13.778;2022-11-15T03:00:31;20.83;;;13.53;;
18875;SDS011;9570;50.854;13.778;2022-11-15T03:03:11;23.23;;;14.80;;
18875;SDS011;9570;50.854;13.778;2022-11-15T03:11:47;21.30;;;13.67;;
18875;SDS011;9570;50.854;13.778;2022-11-15T03:14:23;22.57;;;13.87;;
18875;SDS011;9570;50.854;13.778;2022-11-15T03:19:45;21.63;;;13.93;;
18875;SDS011;9570;50.854;13.778;2022-11-15T03:22:16;21.97;;;14.30;;
18875;SDS011;9570;50.854;13.778;2022-11-15T03:24:45;24.03;;;13.10;;
18875;SDS011;9570;50.854;13.778;2022-11-15T03:27:15;21.80;;;13.13;;
18875;SDS011;9570;50.854;13.778;2022-11-15T03:29:47;20.90;;;13.50;;
18875;SDS011;9570;50.854;13.778;2022-11-15T03:32:20;22.43;;;13.70;;
18875;SDS011;9570;50.854;13.778;2022-11-15T03:34:55;21.10;;;12.77;;
18875;SDS011;9570;50.854;13.778;2022-11-15T03:37:24;19.47;;;11.63;;
18875;SDS011;9570;50.854;13.778;2022-11-15T03:39:55;18.63;;;11.30;;
18875;SDS011;9570;50.854;13.778;2022-11-15T03:45:28;20.30;;;12.27;;
18875;SDS011;9570;50.854;13.778;2022-11-15T03:48:09;17.77;;;11.97;;
18875;SDS011;9570;50.854;13.778;2022-11-15T03:50:38;21.23;;;12.00;;
18875;SDS011;9570;50.854;13.778;2022-11-15T03:53:04;21.70;;;13.47;;
18875;SDS011;9570;50.854;13.778;2022-11-15T03:55:31;21.80;;;13.13;;
18875;SDS011;9570;50.854;13.778;2022-11-15T03:57:58;21.70;;;13.13;;
18875;SDS011;9570;50.854;13.778;2022-11-15T04:00:25;17.30;;;11.80;;
18875;SDS011;9570;50.854;13.778;2022-11-15T04:02:50;22.43;;;13.00;;
18875;SDS011;9570;50.854;13.778;2022-11-15T04:05:16;18.93;;;12.20;;
18875;SDS011;9570;50.854;13.778;2022-11-15T04:07:41;21.17;;;13.33;;
18875;SDS011;9570;50.854;13.778;2022-11-15T04:10:08;18.23;;;12.33;;
18875;SDS011;9570;50.854;13.778;2022-11-15T04:12:38;23.10;;;13.00;;
18875;SDS011;9570;50.854;13.778;2022-11-15T04:15:08;20.37;;;12.97;;
18875;SDS011;9570;50.854;13.778;2022-11-15T04:17:41;20.93;;;11.97;;
18875;SDS011;9570;50.854;13.778;2022-11-15T04:20:21;19.80;;;12.17;;
18875;SDS011;9570;50.854;13.778;2022-11-15T04:23:15;22.50;;;12.07;;
18875;SDS011;9570;50.854;13.778;2022-11-15T04:26:24;17.77;;;11.23;;
18875;SDS011;9570;50.854;13.778;2022-11-15T04:28:49;16.97;;;10.60;;
18875;SDS011;9570;50.854;13.778;2022-11-15T04:31:33;16.83;;;11.37;;
18875;SDS011;9570;50.854;13.778;2022-11-15T04:33:59;16.80;;;10.77;;
18875;SDS011;9570;50.854;13.778;2022-11-15T04:36:25;17.10;;;10.27;;
18875;SDS011;9570;50.854;13.778;2022-11-15T04:39:09;15.73;;;10.30;;
18875;SDS011;9570;50.854;13.778;2022-11-15T04:41:34;14.63;;;9.93;;
18875;SDS011;9570;50.854;13.778;2022-11-15T04:44:00;15.40;;;9.80;;
18875;SDS011;9570;50.854;13.778;2022-11-15T04:46:25;14.27;;;10.10;;
18875;SDS011;9570;50.854;13.778;2022-11-15T04:48:51;16.83;;;10.47;;
18875;SDS011;9570;50.854;13.778;2022-11-15T04:51:18;17.40;;;10.73;;
18875;SDS011;9570;50.854;13.778;2022-11-15T04:53:43;15.77;;;10.47;;
18875;SDS011;9570;50.854;13.778;2022-11-15T04:56:09;14.83;;;10.23;;
18875;SDS011;9570;50.854;13.778;2022-11-15T04:58:34;14.00;;;9.73;;
18875;SDS011;9570;50.854;13.778;2022-11-15T05:01:07;17.30;;;10.37;;
18875;SDS011;9570;50.854;13.778;2022-11-15T05:03:33;17.53;;;10.97;;
18875;SDS011;9570;50.854;13.778;2022-11-15T05:06:17;16.10;;;10.03;;
18875;SDS011;9570;50.854;13.778;2022-11-15T05:08:42;15.67;;;10.33;;
18875;SDS011;9570;50.854;13.778;2022-11-15T05:11:08;15.33;;;9.63;;
18875;SDS011;9570;50.854;13.778;2022-11-15T05:13:33;16.97;;;9.63;;
18875;SDS011;9570;50.854;13.778;2022-11-15T05:15:59;15.10;;;9.80;;
18875;SDS011;9570;50.854;13.778;2022-11-15T05:18:24;16.93;;;10.00;;
18875;SDS011;9570;50.854;13.778;2022-11-15T05:20:50;16.73;;;10.30;;
18875;SDS011;9570;50.854;13.778;2022-11-15T05:23:15;15.87;;;10.20;;
18875;SDS011;9570;50.854;13.778;2022-11-15T05:25:41;17.50;;;9.73;;
18875;SDS011;9570;50.854;13.778;2022-11-15T05:28:06;16.23;;;10.23;;
18875;SDS011;9570;50.854;13.778;2022-11-15T05:30:32;17.97;;;11.07;;
18875;SDS011;9570;50.854;13.778;2022-11-15T05:32:57;16.63;;;10.33;;
18875;SDS011;9570;50.854;13.778;2022-11-15T05:35:29;18.63;;;11.57;;
18875;SDS011;9570;50.854;13.778;2022-11-15T05:37:58;18.07;;;11.50;;
18875;SDS011;9570;50.854;13.778;2022-11-15T05:40:24;17.47;;;11.27;;
18875;SDS011;9570;50.854;13.778;2022-11-15T05:42:50;21.00;;;11.70;;
18875;SDS011;9570;50.854;13.778;2022-11-15T05:45:16;17.13;;;12.00;;
18875;SDS011;9570;50.854;13.778;2022-11-15T05:47:41;19.27;;;11.13;;
18875;SDS011;9570;50.854;13.778;2022-11-15T05:50:08;16.23;;;9.97;;
18875;SDS011;9570;50.854;13.778;2022-11-15T05:52:39;15.53;;;10.77;;
18875;SDS011;9570;50.854;13.778;2022-11-15T05:55:04;15.80;;;10.67;;
18875;SDS011;9570;50.854;13.778;2022-11-15T05:57:33;21.27;;;11.70;;
18875;SDS011;9570;50.854;13.778;2022-11-15T05:59:59;20.70;;;11.87;;
18875;SDS011;9570;50.854;13.778;2022-11-15T06:02:24;19.40;;;11.00;;
18875;SDS011;9570;50.854;13.778;2022-11-15T06:04:50;18.97;;;10.50;;
18875;SDS011;9570;50.854;13.778;2022-11-15T06:07:15;18.60;;;10.90;;
18875;SDS011;9570;50.854;13.778;2022-11-15T06:09:41;15.83;;;10.47;;
18875;SDS011;9570;50.854;13.778;2022-11-15T06:12:06;14.20;;;9.63;;
18875;SDS011;9570;50.854;13.778;2022-11-15T06:14:32;17.77;;;10.77;;
18875;SDS011;9570;50.854;13.778;2022-11-15T06:16:57;17.20;;;10.00;;
18875;SDS011;9570;50.854;13.778;2022-11-15T06:19:23;17.77;;;10.40;;
18875;SDS011;9570;50.854;13.778;2022-11-15T06:21:48;16.13;;;9.67;;
18875;SDS011;9570;50.854;13.778;2022-11-15T06:24:14;14.63;;;9.97;;
18875;SDS011;9570;50.854;13.778;2022-11-15T06:26:39;14.93;;;9.80;;
18875;SDS011;9570;50.854;13.778;2022-11-15T06:29:05;14.70;;;9.30;;
18875;SDS011;9570;50.854;13.778;2022-11-15T06:31:30;17.07;;;9.70;;
18875;SDS011;9570;50.854;13.778;2022-11-15T06:33:56;15.43;;;9.47;;
18875;SDS011;9570;50.854;13.778;2022-11-15T06:36:21;11.87;;;8.57;;
18875;SDS011;9570;50.854;13.778;2022-11-15T06:38:47;15.10;;;9.90;;
18875;SDS011;9570;50.854;13.778;2022-11-15T06:41:13;14.73;;;9.23;;
18875;SDS011;9570;50.854;13.778;2022-11-15T06:43:39;13.90;;;9.33;;
18875;SDS011;9570;50.854;13.778;2022-11-15T06:46:05;12.30;;;8.30;;
18875;SDS011;9570;50.854;13.778;2022-11-15T06:48:32;14.43;;;8.30;;
18875;SDS011;9570;50.854;13.778;2022-11-15T06:50:59;11.47;;;8.17;;
18875;SDS011;9570;50.854;13.778;2022-11-15T06:53:25;12.17;;;7.57;;
18875;SDS011;9570;50.854;13.778;2022-11-15T06:55:51;12.73;;;8.97;;
18875;SDS011;9570;50.854;13.778;2022-11-15T06:58:17;13.17;;;8.30;;
18875;SDS011;9570;50.854;13.778;2022-11-15T07:00:43;10.97;;;7.37;;
18875;SDS011;9570;50.854;13.778;2022-11-15T07:03:09;13.20;;;8.77;;
18875;SDS011;9570;50.854;13.778;2022-11-15T07:05:35;12.87;;;8.33;;
18875;SDS011;9570;50.854;13.778;2022-11-15T07:08:01;11.57;;;8.23;;
18875;SDS011;9570;50.854;13.778;2022-11-15T07:10:27;14.03;;;8.53;;
18875;SDS011;9570;50.854;13.778;2022-11-15T07:12:53;12.90;;;8.47;;
18875;SDS011;9570;50.854;13.778;2022-11-15T07:15:21;11.70;;;7.93;;
18875;SDS011;9570;50.854;13.778;2022-11-15T07:17:48;11.23;;;7.93;;
18875;SDS011;9570;50.854;13.778;2022-11-15T07:20:14;15.40;;;8.20;;
18875;SDS011;9570;50.854;13.778;2022-11-15T07:22:41;16.63;;;8.90;;
18875;SDS011;9570;50.854;13.778;2022-11-15T07:25:07;14.17;;;8.90;;
18875;SDS011;9570;50.854;13.778;2022-11-15T07:27:33;12.63;;;8.37;;
18875;SDS011;9570;50.854;13.778;2022-11-15T07:29:59;17.97;;;10.60;;
18875;SDS011;9570;50.854;13.778;2022-11-15T07:32:24;28.83;;;16.47;;
18875;SDS011;9570;50.854;13.778;2022-11-15T07:34:50;26.40;;;16.20;;
18875;SDS011;9570;50.854;13.778;2022-11-15T07:37:15;22.77;;;14.33;;
18875;SDS011;9570;50.854;13.778;2022-11-15T07:39:41;19.37;;;13.10;;
18875;SDS011;9570;50.854;13.778;2022-11-15T07:42:07;19.57;;;13.30;;
18875;SDS011;9570;50.854;13.778;2022-11-15T07:44:51;15.37;;;10.33;;
18875;SDS011;9570;50.854;13.778;2022-11-15T07:47:17;14.07;;;9.43;;
18875;SDS011;9570;50.854;13.778;2022-11-15T07:49:42;10.53;;;6.80;;
18875;SDS011;9570;50.854;13.778;2022-11-15T07:52:08;9.93;;;7.33;;
18875;SDS011;9570;50.854;13.778;2022-11-15T07:54:33;8.50;;;6.43;;
18875;SDS011;9570;50.854;13.778;2022-11-15T07:56:59;8.37;;;5.90;;
18875;SDS011;9570;50.854;13.778;2022-11-15T07:59:24;7.37;;;5.57;;
18875;SDS011;9570;50.854;13.778;2022-11-15T08:01:50;8.63;;;5.80;;
18875;SDS011;9570;50.854;13.778;2022-11-15T08:04:15;8.37;;;5.87;;
18875;SDS011;9570;50.854;13.778;2022-11-15T08:06:41;10.13;;;5.90;;
18875;SDS011;9570;50.854;13.778;2022-11-15T08:09:06;8.90;;;6.10;;
18875;SDS011;9570;50.854;13.778;2022-11-15T08:11:32;7.70;;;5.90;;
18875;SDS011;9570;50.854;13.778;2022-11-15T08:13:58;10.47;;;7.00;;
18875;SDS011;9570;50.854;13.778;2022-11-15T08:16:23;9.23;;;6.67;;
18875;SDS011;9570;50.854;13.778;2022-11-15T08:18:49;9.10;;;6.73;;
18875;SDS011;9570;50.854;13.778;2022-11-15T08:21:17;10.93;;;6.60;;
18875;SDS011;9570;50.854;13.778;2022-11-15T08:23:43;8.93;;;6.80;;
18875;SDS011;9570;50.854;13.778;2022-11-15T08:26:09;7.07;;;5.60;;
18875;SDS011;9570;50.854;13.778;2022-11-15T08:28:35;8.97;;;6.73;;
18875;SDS011;9570;50.854;13.778;2022-11-15T08:31:00;8.63;;;6.47;;
18875;SDS011;9570;50.854;13.778;2022-11-15T08:33:27;6.17;;;5.47;;
18875;SDS011;9570;50.854;13.778;2022-11-15T08:35:55;9.33;;;5.90;;
18875;SDS011;9570;50.854;13.778;2022-11-15T08:38:22;10.50;;;8.10;;
18875;SDS011;9570;50.854;13.778;2022-11-15T08:40:48;13.63;;;8.33;;
18875;SDS011;9570;50.854;13.778;2022-11-15T08:43:15;14.10;;;9.10;;
18875;SDS011;9570;50.854;13.778;2022-11-15T08:45:40;11.83;;;8.73;;
18875;SDS011;9570;50.854;13.778;2022-11-15T08:48:06;11.83;;;8.47;;
18875;SDS011;9570;50.854;13.778;2022-11-15T08:50:31;10.03;;;8.23;;
18875;SDS011;9570;50.854;13.778;2022-11-15T08:52:57;10.30;;;7.40;;
18875;SDS011;9570;50.854;13.778;2022-11-15T08:55:28;8.03;;;6.37;;
18875;SDS011;9570;50.854;13.778;2022-11-15T08:57:56;10.10;;;6.73;;
18875;SDS011;9570;50.854;13.778;2022-11-15T09:00:22;9.80;;;6.23;;
18875;SDS011;9570;50.854;13.778;2022-11-15T09:02:48;7.70;;;5.90;;
18875;SDS011;9570;50.854;13.778;2022-11-15T09:05:13;8.03;;;6.20;;
18875;SDS011;9570;50.854;13.778;2022-11-15T09:07:40;9.40;;;6.40;;
18875;SDS011;9570;50.854;13.778;2022-11-15T09:10:06;9.30;;;6.97;;
18875;SDS011;9570;50.854;13.778;2022-11-15T09:12:31;9.50;;;6.73;;
18875;SDS011;9570;50.854;13.778;2022-11-15T09:14:57;8.40;;;6.07;;
18875;SDS011;9570;50.854;13.778;2022-11-15T09:17:23;9.97;;;6.63;;
18875;SDS011;9570;50.854;13.778;2022-11-15T09:19:48;9.87;;;7.53;;
18875;SDS011;9570;50.854;13.778;2022-11-15T09:22:14;8.30;;;6.70;;
18875;SDS011;9570;50.854;13.778;2022-11-15T09:24:39;8.43;;;6.70;;
18875;SDS011;9570;50.854;13.778;2022-11-15T09:27:05;8.13;;;6.53;;
18875;SDS011;9570;50.854;13.778;2022-11-15T09:29:30;12.00;;;6.93;;
18875;SDS011;9570;50.854;13.778;2022-11-15T09:31:56;8.33;;;5.10;;
18875;SDS011;9570;50.854;13.778;2022-11-15T09:34:21;8.37;;;6.33;;
18875;SDS011;9570;50.854;13.778;2022-11-15T09:36:47;7.73;;;6.10;;
18875;SDS011;9570;50.854;13.778;2022-11-15T09:39:12;6.77;;;5.30;;
18875;SDS011;9570;50.854;13.778;2022-11-15T09:41:42;6.50;;;4.77;;
18875;SDS011;9570;50.854;13.778;2022-11-15T09:44:30;7.07;;;4.67;;
18875;SDS011;9570;50.854;13.778;2022-11-15T09:47:05;7.00;;;4.80;;
18875;SDS011;9570;50.854;13.778;2022-11-15T09:49:53;8.20;;;4.37;;
18875;SDS011;9570;50.854;13.778;2022-11-15T09:52:23;5.10;;;4.10;;
18875;SDS011;9570;50.854;13.778;2022-11-15T09:54:49;4.23;;;3.60;;
18875;SDS011;9570;50.854;13.778;2022-11-15T09:57:33;10.37;;;7.37;;
18875;SDS011;9570;50.854;13.778;2022-11-15T10:00:24;9.23;;;6.40;;
18875;SDS011;9570;50.854;13.778;2022-11-15T10:03:12;11.00;;;6.73;;
18875;SDS011;9570;50.854;13.778;2022-11-15T10:06:00;12.03;;;7.30;;
18875;SDS011;9570;50.854;13.778;2022-11-15T10:11:29;4.93;;;3.00;;
18875;SDS011;9570;50.854;13.778;2022-11-15T10:13:59;5.80;;;4.73;;
18875;SDS011;9570;50.854;13.778;2022-11-15T10:16:48;6.80;;;5.20;;
18875;SDS011;9570;50.854;13.778;2022-11-15T10:20:10;4.97;;;3.13;;
18875;SDS011;9570;50.854;13.778;2022-11-15T10:27:33;4.10;;;2.53;;
18875;SDS011;9570;50.854;13.778;2022-11-15T10:29:59;7.23;;;4.63;;
18875;SDS011;9570;50.854;13.778;2022-11-15T10:32:24;5.17;;;3.20;;
18875;SDS011;9570;50.854;13.778;2022-11-15T10:34:50;3.93;;;2.60;;
18875;SDS011;9570;50.854;13.778;2022-11-15T10:37:29;4.53;;;2.97;;
18875;SDS011;9570;50.854;13.778;2022-11-15T10:45:34;3.07;;;2.10;;
18875;SDS011;9570;50.854;13.778;2022-11-15T10:50:37;2.53;;;1.80;;
18875;SDS011;9570;50.854;13.778;2022-11-15T10:53:15;2.30;;;1.70;;
18875;SDS011;9570;50.854;13.778;2022-11-15T10:55:48;5.73;;;2.50;;
18875;SDS011;9570;50.854;13.778;2022-11-15T10:58:21;3.07;;;2.23;;
18875;SDS011;9570;50.854;13.778;2022-11-15T11:01:11;2.80;;;2.20;;
18875;SDS011;9570;50.854;13.778;2022-11-15T11:04:08;4.33;;;2.43;;
18875;SDS011;9570;50.854;13.778;2022-11-15T11:06:55;3.97;;;2.10;;
18875;SDS011;9570;50.854;13.778;2022-11-15T11:11:54;1.93;;;1.70;;
18875;SDS011;9570;50.854;13.778;2022-11-15T11:14:21;3.43;;;1.90;;
18875;SDS011;9570;50.854;13.778;2022-11-15T11:20:00;2.70;;;1.97;;
18875;SDS011;9570;50.854;13.778;2022-11-15T11:22:20;3.50;;;1.97;;
18875;SDS011;9570;50.854;13.778;2022-11-15T11:25:13;3.13;;;1.93;;
18875;SDS011;9570;50.854;13.778;2022-11-15T11:27:56;2.80;;;1.90;;
18875;SDS011;9570;50.854;13.778;2022-11-15T11:38:19;7.33;;;4.57;;
18875;SDS011;9570;50.854;13.778;2022-11-15T11:49:16;9.90;;;6.67;;
18875;SDS011;9570;50.854;13.778;2022-11-15T11:51:56;9.57;;;6.13;;
18875;SDS011;9570;50.854;13.778;2022-11-15T11:57:02;7.57;;;6.17;;
18875;SDS011;9570;50.854;13.778;2022-11-15T12:01:57;8.70;;;6.40;;
18875;SDS011;9570;50.854;13.778;2022-11-15T12:04:36;7.77;;;6.27;;
18875;SDS011;9570;50.854;13.778;2022-11-15T12:07:17;7.97;;;6.70;;
18875;SDS011;9570;50.854;13.778;2022-11-15T12:09:51;9.27;;;7.73;;
18875;SDS011;9570;50.854;13.778;2022-11-15T12:12:41;9.63;;;7.67;;
18875;SDS011;9570;50.854;13.778;2022-11-15T12:15:24;10.73;;;7.60;;
18875;SDS011;9570;50.854;13.778;2022-11-15T12:17:54;11.57;;;8.43;;
18875;SDS011;9570;50.854;13.778;2022-11-15T12:20:22;7.97;;;6.43;;
18875;SDS011;9570;50.854;13.778;2022-11-15T12:28:24;9.27;;;7.70;;
18875;SDS011;9570;50.854;13.778;2022-11-15T12:33:42;10.27;;;7.17;;
18875;SDS011;9570;50.854;13.778;2022-11-15T12:36:29;8.93;;;7.00;;
18875;SDS011;9570;50.854;13.778;2022-11-15T12:39:21;9.03;;;6.60;;
18875;SDS011;9570;50.854;13.778;2022-11-15T12:45:00;9.63;;;6.40;;
18875;SDS011;9570;50.854;13.778;2022-11-15T12:47:26;8.60;;;6.90;;
18875;SDS011;9570;50.854;13.778;2022-11-15T12:49:52;7.13;;;6.40;;
18875;SDS011;9570;50.854;13.778;2022-11-15T12:52:18;7.57;;;6.17;;
18875;SDS011;9570;50.854;13.778;2022-11-15T13:00:04;8.00;;;4.40;;
18875;SDS011;9570;50.854;13.778;2022-11-15T13:02:53;7.50;;;5.20;;
18875;SDS011;9570;50.854;13.778;2022-11-15T13:08:07;6.53;;;5.20;;
18875;SDS011;9570;50.854;13.778;2022-11-15T13:10:33;6.47;;;5.20;;
18875;SDS011;9570;50.854;13.778;2022-11-15T13:13:03;10.57;;;6.17;;
18875;SDS011;9570;50.854;13.778;2022-11-15T13:20:57;8.70;;;6.87;;
18875;SDS011;9570;50.854;13.778;2022-11-15T13:23:23;10.37;;;7.80;;
18875;SDS011;9570;50.854;13.778;2022-11-15T13:28:47;12.53;;;9.00;;
18875;SDS011;9570;50.854;13.778;2022-11-15T13:33:47;11.40;;;8.80;;
18875;SDS011;9570;50.854;13.778;2022-11-15T13:36:13;11.37;;;9.13;;
18875;SDS011;9570;50.854;13.778;2022-11-15T13:38:43;12.83;;;8.90;;
18875;SDS011;9570;50.854;13.778;2022-11-15T13:41:22;13.50;;;9.20;;
18875;SDS011;9570;50.854;13.778;2022-11-15T13:43:51;14.77;;;8.60;;
18875;SDS011;9570;50.854;13.778;2022-11-15T13:46:18;10.53;;;8.10;;
18875;SDS011;9570;50.854;13.778;2022-11-15T13:48:47;10.87;;;8.67;;
18875;SDS011;9570;50.854;13.778;2022-11-15T13:51:19;11.70;;;8.13;;
18875;SDS011;9570;50.854;13.778;2022-11-15T13:56:37;10.77;;;8.10;;
18875;SDS011;9570;50.854;13.778;2022-11-15T13:59:10;11.43;;;8.63;;
18875;SDS011;9570;50.854;13.778;2022-11-15T14:01:46;12.43;;;8.87;;
18875;SDS011;9570;50.854;13.778;2022-11-15T14:04:12;12.53;;;9.20;;
18875;SDS011;9570;50.854;13.778;2022-11-15T14:06:47;12.50;;;9.40;;
18875;SDS011;9570;50.854;13.778;2022-11-15T14:12:01;13.30;;;8.27;;
18875;SDS011;9570;50.854;13.778;2022-11-15T14:14:45;10.97;;;8.80;;
18875;SDS011;9570;50.854;13.778;2022-11-15T14:17:19;11.43;;;8.40;;
18875;SDS011;9570;50.854;13.778;2022-11-15T14:19:54;13.87;;;8.80;;
18875;SDS011;9570;50.854;13.778;2022-11-15T14:22:22;14.60;;;9.43;;
18875;SDS011;9570;50.854;13.778;2022-11-15T14:25:14;12.33;;;8.47;;
18875;SDS011;9570;50.854;13.778;2022-11-15T14:27:44;12.20;;;9.07;;
18875;SDS011;9570;50.854;13.778;2022-11-15T14:30:49;10.83;;;8.17;;
18875;SDS011;9570;50.854;13.778;2022-11-15T14:35:56;11.73;;;8.63;;
18875;SDS011;9570;50.854;13.778;2022-11-15T14:38:26;12.17;;;8.77;;
18875;SDS011;9570;50.854;13.778;2022-11-15T14:40:52;12.20;;;8.73;;
18875;SDS011;9570;50.854;13.778;2022-11-15T14:43:19;13.73;;;8.63;;
18875;SDS011;9570;50.854;13.778;2022-11-15T14:45:45;10.87;;;8.90;;
18875;SDS011;9570;50.854;13.778;2022-11-15T14:48:11;13.03;;;8.37;;
18875;SDS011;9570;50.854;13.778;2022-11-15T14:50:36;9.33;;;7.80;;
18875;SDS011;9570;50.854;13.778;2022-11-15T14:53:02;11.40;;;8.63;;
18875;SDS011;9570;50.854;13.778;2022-11-15T14:55:29;13.13;;;8.13;;
18875;SDS011;9570;50.854;13.778;2022-11-15T14:57:58;11.73;;;7.83;;
18875;SDS011;9570;50.854;13.778;2022-11-15T15:00:24;10.87;;;7.63;;
18875;SDS011;9570;50.854;13.778;2022-11-15T15:02:52;11.13;;;8.10;;
18875;SDS011;9570;50.854;13.778;2022-11-15T15:05:20;11.13;;;8.33;;
18875;SDS011;9570;50.854;13.778;2022-11-15T15:07:48;9.53;;;7.60;;
18875;SDS011;9570;50.854;13.778;2022-11-15T15:10:14;11.03;;;7.97;;
18875;SDS011;9570;50.854;13.778;2022-11-15T15:12:40;10.77;;;7.60;;
18875;SDS011;9570;50.854;13.778;2022-11-15T15:15:10;10.43;;;7.40;;
18875;SDS011;9570;50.854;13.778;2022-11-15T15:17:42;9.67;;;7.13;;
18875;SDS011;9570;50.854;13.778;2022-11-15T15:20:09;9.60;;;7.20;;
18875;SDS011;9570;50.854;13.778;2022-11-15T15:22:35;13.10;;;7.77;;
18875;SDS011;9570;50.854;13.778;2022-11-15T15:25:00;11.47;;;6.73;;
18875;SDS011;9570;50.854;13.778;2022-11-15T15:27:27;8.80;;;7.20;;
18875;SDS011;9570;50.854;13.778;2022-11-15T15:29:52;9.13;;;7.03;;
18875;SDS011;9570;50.854;13.778;2022-11-15T15:32:18;9.07;;;6.80;;
18875;SDS011;9570;50.854;13.778;2022-11-15T15:34:44;10.30;;;7.27;;
18875;SDS011;9570;50.854;13.778;2022-11-15T15:37:25;10.43;;;7.40;;
18875;SDS011;9570;50.854;13.778;2022-11-15T15:39:51;10.87;;;6.70;;
18875;SDS011;9570;50.854;13.778;2022-11-15T15:42:22;9.03;;;6.13;;
18875;SDS011;9570;50.854;13.778;2022-11-15T15:44:48;10.50;;;6.13;;
18875;SDS011;9570;50.854;13.778;2022-11-15T15:47:15;11.30;;;6.20;;
18875;SDS011;9570;50.854;13.778;2022-11-15T15:49:43;11.30;;;6.00;;
18875;SDS011;9570;50.854;13.778;2022-11-15T15:52:08;7.93;;;5.80;;
18875;SDS011;9570;50.854;13.778;2022-11-15T15:54:34;9.20;;;6.07;;
18875;SDS011;9570;50.854;13.778;2022-11-15T15:56:59;8.60;;;5.73;;
18875;SDS011;9570;50.854;13.778;2022-11-15T15:59:25;9.23;;;5.33;;
18875;SDS011;9570;50.854;13.778;2022-11-15T16:01:50;8.30;;;5.30;;
18875;SDS011;9570;50.854;13.778;2022-11-15T16:04:16;7.60;;;5.63;;
18875;SDS011;9570;50.854;13.778;2022-11-15T16:06:42;8.20;;;5.60;;
18875;SDS011;9570;50.854;13.778;2022-11-15T16:09:12;9.77;;;5.33;;
18875;SDS011;9570;50.854;13.778;2022-11-15T16:11:40;7.83;;;5.20;;
18875;SDS011;9570;50.854;13.778;2022-11-15T16:14:06;9.47;;;5.63;;
18875;SDS011;9570;50.854;13.778;2022-11-15T16:16:32;7.00;;;5.27;;
18875;SDS011;9570;50.854;13.778;2022-11-15T16:18:59;6.87;;;5.40;;
18875;SDS011;9570;50.854;13.778;2022-11-15T16:21:25;6.13;;;5.03;;
18875;SDS011;9570;50.854;13.778;2022-11-15T16:23:51;7.17;;;4.93;;
18875;SDS011;9570;50.854;13.778;2022-11-15T16:26:21;7.27;;;5.63;;
18875;SDS011;9570;50.854;13.778;2022-11-15T16:28:49;7.03;;;5.30;;
18875;SDS011;9570;50.854;13.778;2022-11-15T16:31:15;10.50;;;5.43;;
18875;SDS011;9570;50.854;13.778;2022-11-15T16:33:43;7.27;;;5.10;;
18875;SDS011;9570;50.854;13.778;2022-11-15T16:36:20;8.40;;;4.93;;
18875;SDS011;9570;50.854;13.778;2022-11-15T16:38:47;5.57;;;4.50;;